Time;durP1;ratioP1;P1;durP2;ratioP2;P2;SDS_P1;SDS_P2;PMS_P1;PMS_P2;Temp;Humidity;BMP_temperature;BMP_pressure;BME280_temperature;BME280_humidity;BME280_pressure;Samples;Min_cycle;Max_cycle;Signal;HPM_P1;HPM_P2
2021/05/15 00:02:11;;;;;;;10.60;8.57;;;11.20;97.40;;;;;;5106495;28;20095;-40
2021/05/15 00:04:36;;;;;;;12.55;8.75;;;11.20;97.50;;;;;;5096326;28;20182;-39
2021/05/15 00:07:02;;;;;;;13.85;9.95;;;11.20;97.50;;;;;;5105570;28;20051;-39
2021/05/15 00:09:28;;;;;;;15.95;9.10;;;11.20;97.40;;;;;;5096756;28;20038;-40
2021/05/15 00:11:53;;;;;;;12.00;8.38;;;11.30;97.40;;;;;;5107627;28;20026;-39
2021/05/15 00:14:19;;;;;;;11.73;9.05;;;11.30;97.40;;;;;;5094810;28;20051;-39
2021/05/15 00:16:44;;;;;;;10.02;9.02;;;11.30;97.40;;;;;;5107554;28;20026;-39
2021/05/15 00:19:10;;;;;;;13.13;8.73;;;11.30;97.30;;;;;;5093842;28;20131;-40
2021/05/15 00:21:35;;;;;;;14.43;10.43;;;11.40;97.30;;;;;;5107381;28;20049;-39
2021/05/15 00:24:04;;;;;;;13.02;9.80;;;11.40;97.30;;;;;;5096789;28;20035;-39
2021/05/15 00:26:30;;;;;;;15.00;11.50;;;11.40;97.30;;;;;;5105057;28;20031;-36
2021/05/15 00:28:55;;;;;;;17.27;11.90;;;11.40;97.40;;;;;;5099417;28;20024;-39
2021/05/15 00:31:21;;;;;;;14.30;11.40;;;11.40;97.40;;;;;;5102427;28;20035;-39
2021/05/15 00:33:47;;;;;;;13.10;10.50;;;11.40;97.40;;;;;;5101309;28;20023;-39
2021/05/15 00:36:12;;;;;;;15.25;10.65;;;11.40;97.30;;;;;;5099066;28;20341;-39
2021/05/15 00:38:38;;;;;;;14.02;11.10;;;11.50;97.20;;;;;;5104197;28;20379;-38
2021/05/15 00:41:04;;;;;;;14.82;11.38;;;11.50;97.10;;;;;;5097007;28;20106;-39
2021/05/15 00:43:29;;;;;;;13.68;9.88;;;11.50;97.10;;;;;;5105014;28;20454;-37
2021/05/15 00:45:56;;;;;;;13.63;10.40;;;11.50;97.10;;;;;;5095579;28;20019;-38
2021/05/15 00:48:22;;;;;;;10.77;9.65;;;11.60;97.10;;;;;;5093785;28;20107;-38
2021/05/15 00:50:48;;;;;;;14.07;10.82;;;11.50;97.00;;;;;;5097196;28;20552;-38
2021/05/15 00:53:17;;;;;;;13.65;10.13;;;11.50;97.00;;;;;;5086919;28;20031;-39
2021/05/15 00:55:42;;;;;;;16.13;11.13;;;11.50;97.00;;;;;;5098503;28;20112;-39
2021/05/15 00:58:12;;;;;;;13.60;11.18;;;11.50;97.00;;;;;;5086766;28;20616;-40
2021/05/15 01:00:38;;;;;;;15.10;11.32;;;11.50;97.00;;;;;;5099013;28;20050;-40
2021/05/15 01:03:04;;;;;;;12.40;10.07;;;11.40;97.00;;;;;;5086459;28;20519;-40
2021/05/15 01:05:29;;;;;;;19.33;12.95;;;11.40;97.00;;;;;;5096155;28;20120;-38
2021/05/15 01:07:55;;;;;;;17.23;11.93;;;11.40;97.00;;;;;;5087714;28;20038;-39
2021/05/15 01:10:20;;;;;;;14.30;12.00;;;11.40;96.90;;;;;;5094521;28;20020;-39
2021/05/15 01:12:52;;;;;;;18.15;13.60;;;11.30;97.00;;;;;;5090177;28;20375;-37
2021/05/15 01:15:19;;;;;;;15.88;11.52;;;11.30;97.00;;;;;;5092442;28;20088;-39
2021/05/15 01:17:49;;;;;;;14.95;11.57;;;11.20;97.00;;;;;;5091799;28;20056;-38
2021/05/15 01:20:15;;;;;;;18.15;12.07;;;11.20;97.10;;;;;;5090235;28;20043;-39
2021/05/15 01:22:40;;;;;;;17.58;13.25;;;11.10;97.10;;;;;;5093403;28;20024;-40
2021/05/15 01:25:06;;;;;;;16.30;11.95;;;11.00;97.20;;;;;;5088262;28;20107;-39
2021/05/15 01:27:32;;;;;;;16.50;11.13;;;11.00;97.20;;;;;;5096210;28;20479;-40
2021/05/15 01:29:57;;;;;;;15.35;11.82;;;11.00;97.30;;;;;;5086804;28;20073;-40
2021/05/15 01:32:23;;;;;;;13.68;10.80;;;11.00;97.30;;;;;;5097368;28;20070;-40
2021/05/15 01:34:49;;;;;;;15.70;11.48;;;11.00;97.40;;;;;;5085393;28;20020;-40
2021/05/15 01:37:14;;;;;;;16.20;11.70;;;11.00;97.40;;;;;;5097811;28;20671;-39
2021/05/15 01:39:39;;;;;;;15.57;12.23;;;11.00;97.50;;;;;;5086005;28;20105;-38
2021/05/15 01:42:05;;;;;;;18.65;12.23;;;11.10;97.50;;;;;;5098616;28;20058;-38
2021/05/15 01:44:31;;;;;;;16.20;12.02;;;11.10;97.50;;;;;;5085229;28;20183;-39
2021/05/15 01:46:57;;;;;;;13.15;11.38;;;11.10;97.40;;;;;;5095216;28;20469;-36
2021/05/15 01:49:22;;;;;;;14.65;11.30;;;11.20;97.70;;;;;;5086038;28;20024;-39
2021/05/15 01:51:48;;;;;;;15.27;12.50;;;11.20;97.40;;;;;;5093454;28;20336;-39
2021/05/15 01:54:13;;;;;;;15.13;12.15;;;11.10;97.40;;;;;;5089695;28;20078;-39
2021/05/15 01:56:39;;;;;;;14.38;12.10;;;11.10;97.40;;;;;;5091406;28;20049;-39
2021/05/15 01:59:07;;;;;;;17.40;12.32;;;11.00;97.40;;;;;;5091470;28;20483;-38
2021/05/15 02:01:36;;;;;;;15.90;11.90;;;11.00;97.40;;;;;;5089501;28;20443;-39
2021/05/15 02:04:02;;;;;;;17.17;12.48;;;11.00;97.50;;;;;;5093535;28;20024;-39
2021/05/15 02:06:28;;;;;;;16.08;12.38;;;11.00;97.50;;;;;;5086589;28;20036;-39
2021/05/15 02:08:56;;;;;;;16.02;12.77;;;11.10;97.50;;;;;;5096000;28;20086;-39
2021/05/15 02:11:22;;;;;;;16.77;12.23;;;11.00;97.60;;;;;;5086898;28;20175;-40
2021/05/15 02:13:49;;;;;;;16.92;12.27;;;11.10;97.60;;;;;;5096211;28;20199;-40
2021/05/15 02:16:16;;;;;;;14.90;11.50;;;11.10;97.60;;;;;;5086559;28;20100;-39
2021/05/15 02:18:42;;;;;;;16.92;12.65;;;11.10;97.60;;;;;;5095773;28;20035;-37
2021/05/15 02:21:08;;;;;;;17.95;12.10;;;11.10;97.60;;;;;;5085875;28;20478;-39
2021/05/15 02:23:33;;;;;;;17.92;12.07;;;11.10;97.60;;;;;;5097853;28;20413;-40
2021/05/15 02:25:59;;;;;;;16.77;13.32;;;11.20;97.60;;;;;;5084793;28;20269;-39
2021/05/15 02:28:25;;;;;;;17.63;12.82;;;11.20;97.60;;;;;;5097866;28;20138;-40
2021/05/15 02:30:51;;;;;;;16.42;12.48;;;11.10;97.60;;;;;;5085170;28;20016;-38
2021/05/15 02:33:17;;;;;;;15.93;12.35;;;11.20;97.60;;;;;;5094274;28;20027;-41
2021/05/15 02:35:43;;;;;;;15.00;12.52;;;11.20;97.60;;;;;;5087611;28;20508;-39
2021/05/15 02:38:12;;;;;;;16.63;12.23;;;11.10;97.60;;;;;;5092814;28;20123;-39
2021/05/15 02:40:39;;;;;;;17.48;12.07;;;11.20;97.60;;;;;;5089299;28;20406;-39
2021/05/15 02:43:04;;;;;;;16.00;12.45;;;11.20;97.60;;;;;;5090165;28;20093;-39
2021/05/15 02:45:30;;;;;;;17.77;13.45;;;11.10;97.60;;;;;;5092358;28;20135;-36
2021/05/15 02:47:56;;;;;;;17.98;13.23;;;11.10;97.70;;;;;;5090616;28;20043;-39
2021/05/15 02:50:23;;;;;;;19.17;13.93;;;11.00;97.90;;;;;;5088799;28;20412;-39
2021/05/15 02:52:49;;;;;;;16.42;13.23;;;10.90;97.70;;;;;;5085398;28;20164;-39
2021/05/15 02:55:17;;;;;;;18.80;14.23;;;10.90;97.80;;;;;;5094114;28;20031;-39
2021/05/15 02:57:43;;;;;;;20.52;14.68;;;10.80;97.90;;;;;;5084918;28;20124;-38
2021/05/15 03:00:12;;;;;;;19.60;14.63;;;10.70;97.90;;;;;;5098431;28;20042;-40
2021/05/15 03:02:38;;;;;;;18.50;14.57;;;10.70;98.00;;;;;;5086473;28;20085;-39
2021/05/15 03:05:08;;;;;;;19.67;13.60;;;10.70;98.00;;;;;;5099852;28;20028;-39
2021/05/15 03:07:34;;;;;;;17.80;12.98;;;10.70;98.10;;;;;;5086576;28;20047;-39
2021/05/15 03:10:00;;;;;;;21.23;13.38;;;10.60;98.00;;;;;;5100039;28;20814;-39
2021/05/15 03:12:25;;;;;;;19.15;14.05;;;10.60;98.00;;;;;;5088669;28;20028;-40
2021/05/15 03:14:51;;;;;;;17.92;14.15;;;10.60;98.10;;;;;;5099246;28;20039;-40
2021/05/15 03:17:16;;;;;;;17.20;13.32;;;10.60;98.10;;;;;;5089697;28;20028;-39
2021/05/15 03:19:42;;;;;;;18.30;13.38;;;10.50;98.10;;;;;;5096827;28;20028;-40
2021/05/15 03:22:08;;;;;;;17.52;13.27;;;10.50;98.10;;;;;;5091937;28;20553;-38
2021/05/15 03:24:33;;;;;;;20.63;13.43;;;10.40;98.20;;;;;;5094489;28;20455;-39
2021/05/15 03:26:59;;;;;;;19.05;13.50;;;10.40;98.30;;;;;;5095250;28;20106;-39
2021/05/15 03:29:26;;;;;;;16.58;13.60;;;10.40;98.30;;;;;;5090886;28;20028;-39
2021/05/15 03:31:52;;;;;;;18.05;13.68;;;10.40;98.30;;;;;;5097618;28;20020;-39
2021/05/15 03:34:18;;;;;;;18.67;14.88;;;10.40;98.30;;;;;;5089405;28;20046;-38
2021/05/15 03:36:43;;;;;;;23.38;14.65;;;10.40;98.30;;;;;;5098729;28;20088;-39
2021/05/15 03:39:09;;;;;;;20.10;14.68;;;10.40;98.30;;;;;;5089805;28;20451;-38
2021/05/15 03:41:34;;;;;;;18.55;14.15;;;10.50;98.30;;;;;;5099722;28;20032;-38
2021/05/15 03:44:03;;;;;;;19.02;14.55;;;10.50;98.30;;;;;;5088095;28;20027;-39
2021/05/15 03:46:29;;;;;;;19.48;14.38;;;10.50;98.30;;;;;;5095941;28;20030;-39
2021/05/15 03:48:54;;;;;;;18.90;14.65;;;10.50;98.30;;;;;;5091634;28;20098;-39
2021/05/15 03:51:20;;;;;;;22.15;16.00;;;10.60;98.30;;;;;;5100136;28;20487;-39
2021/05/15 03:53:45;;;;;;;18.58;15.07;;;10.50;98.30;;;;;;5087735;28;20047;-38
2021/05/15 03:56:11;;;;;;;20.83;15.02;;;10.60;98.30;;;;;;5099139;28;20122;-38
2021/05/15 03:58:37;;;;;;;19.38;15.27;;;10.60;98.20;;;;;;5088467;28;20024;-39
2021/05/15 04:01:02;;;;;;;19.92;14.80;;;10.60;98.20;;;;;;5095854;28;20114;-39
2021/05/15 04:03:28;;;;;;;18.30;13.75;;;10.60;98.20;;;;;;5092018;28;20115;-40
2021/05/15 04:05:53;;;;;;;19.73;14.40;;;10.60;98.20;;;;;;5092664;28;20069;-38
2021/05/15 04:08:19;;;;;;;18.55;14.35;;;10.70;98.30;;;;;;5094441;28;20016;-39
2021/05/15 04:10:44;;;;;;;23.08;14.85;;;10.70;98.30;;;;;;5089051;28;20450;-39
2021/05/15 04:13:22;;;;;;;20.10;15.20;;;10.70;98.30;;;;;;5096991;28;20051;-36
2021/05/15 04:15:57;;;;;;;20.00;15.18;;;10.70;98.30;;;;;;5088726;28;20422;-39
2021/05/15 04:18:27;;;;;;;21.40;14.70;;;10.80;98.30;;;;;;5096647;28;20383;-40
2021/05/15 04:20:53;;;;;;;20.02;14.45;;;10.80;98.30;;;;;;5088688;28;20501;-38
2021/05/15 04:23:18;;;;;;;18.75;14.32;;;10.80;98.30;;;;;;5098797;28;20020;-40
2021/05/15 04:25:44;;;;;;;19.02;13.95;;;10.80;98.30;;;;;;5087661;28;20550;-38
2021/05/15 04:28:09;;;;;;;20.33;15.07;;;10.90;98.20;;;;;;5098499;28;20043;-39
2021/05/15 04:30:35;;;;;;;19.35;15.13;;;10.90;98.20;;;;;;5086972;28;20454;-39
2021/05/15 04:33:01;;;;;;;19.15;15.48;;;10.90;98.20;;;;;;5099190;28;20024;-40
2021/05/15 04:35:27;;;;;;;18.55;14.13;;;10.90;98.20;;;;;;5086828;28;20022;-39
2021/05/15 04:37:53;;;;;;;18.67;14.27;;;10.90;98.20;;;;;;5099148;28;20038;-40
2021/05/15 04:40:19;;;;;;;19.02;13.88;;;10.90;98.20;;;;;;5086645;28;20115;-40
2021/05/15 04:42:45;;;;;;;17.30;13.70;;;11.00;98.30;;;;;;5097197;28;20024;-40
2021/05/15 04:45:13;;;;;;;18.10;13.85;;;11.00;98.30;;;;;;5088950;28;20030;-41
2021/05/15 04:47:40;;;;;;;16.30;12.68;;;11.00;98.30;;;;;;5089287;28;20020;-40
2021/05/15 04:50:08;;;;;;;19.58;13.95;;;11.00;98.30;;;;;;5086856;28;20170;-39
2021/05/15 04:52:34;;;;;;;17.85;13.13;;;11.10;98.30;;;;;;5092817;28;20032;-39
2021/05/15 04:55:00;;;;;;;17.80;13.38;;;11.10;98.30;;;;;;5100208;28;20035;-39
2021/05/15 04:57:25;;;;;;;20.52;14.35;;;11.20;98.30;;;;;;5102805;28;20114;-39
2021/05/15 04:59:51;;;;;;;17.75;13.52;;;11.20;98.50;;;;;;5097838;28;20568;-39
2021/05/15 05:02:16;;;;;;;17.65;13.30;;;11.30;98.30;;;;;;5105176;28;20584;-40
2021/05/15 05:04:42;;;;;;;19.60;13.30;;;11.30;98.30;;;;;;5095121;28;20020;-39
2021/05/15 05:07:08;;;;;;;21.50;13.88;;;11.30;98.20;;;;;;5104945;28;20071;-40
2021/05/15 05:09:33;;;;;;;19.25;13.70;;;11.40;98.20;;;;;;5093160;28;20124;-39
2021/05/15 05:11:59;;;;;;;19.63;13.65;;;11.40;98.20;;;;;;5106475;28;20057;-40
2021/05/15 05:14:25;;;;;;;17.98;14.00;;;11.50;98.20;;;;;;5093699;28;20091;-40
2021/05/15 05:16:54;;;;;;;19.50;13.25;;;11.50;98.20;;;;;;5105816;28;20194;-40
2021/05/15 05:19:24;;;;;;;21.95;13.80;;;11.50;98.20;;;;;;5093549;28;20470;-40
2021/05/15 05:21:50;;;;;;;19.35;14.00;;;11.50;98.20;;;;;;5104888;28;20764;-40
2021/05/15 05:24:16;;;;;;;17.83;13.10;;;11.50;98.20;;;;;;5094035;28;20165;-40
2021/05/15 05:26:42;;;;;;;18.95;13.98;;;11.60;98.20;;;;;;5105634;28;20043;-39
2021/05/15 05:29:08;;;;;;;17.70;13.05;;;11.60;98.20;;;;;;5096248;28;20035;-39
2021/05/15 05:31:43;;;;;;;17.95;13.43;;;11.60;98.10;;;;;;5103068;28;20024;-39
2021/05/15 05:34:08;;;;;;;17.45;13.85;;;11.70;98.10;;;;;;5097868;28;20028;-38
2021/05/15 05:36:35;;;;;;;17.63;13.65;;;11.80;98.10;;;;;;5100999;28;20015;-38
2021/05/15 05:39:04;;;;;;;21.05;15.23;;;11.90;98.00;;;;;;5099313;28;20067;-41
2021/05/15 05:41:29;;;;;;;19.15;13.85;;;11.90;98.00;;;;;;5100070;28;20450;-39
2021/05/15 05:43:55;;;;;;;17.13;13.90;;;11.90;97.90;;;;;;5101780;28;20046;-39
2021/05/15 05:46:21;;;;;;;19.25;14.82;;;12.00;98.00;;;;;;5097045;28;20111;-39
2021/05/15 05:48:47;;;;;;;17.77;14.50;;;12.00;98.00;;;;;;5093052;28;20415;-39
2021/05/15 05:51:12;;;;;;;19.38;14.23;;;12.00;98.00;;;;;;5096380;28;20115;-39
2021/05/15 05:53:38;;;;;;;19.30;14.15;;;12.00;98.00;;;;;;5086980;28;20031;-40
2021/05/15 05:56:04;;;;;;;21.05;13.73;;;12.10;98.00;;;;;;5097118;28;20408;-39
2021/05/15 05:58:30;;;;;;;24.30;14.18;;;12.10;98.00;;;;;;5084854;28;20032;-40
2021/05/15 06:00:55;;;;;;;19.92;15.07;;;12.10;98.00;;;;;;5097592;28;20024;-39
2021/05/15 06:03:21;;;;;;;19.55;14.20;;;12.10;98.00;;;;;;5085840;28;20471;-40
2021/05/15 06:05:46;;;;;;;18.73;14.48;;;12.20;98.00;;;;;;5097025;28;20044;-38
2021/05/15 06:08:12;;;;;;;22.08;15.93;;;12.20;98.00;;;;;;5086260;28;20490;-39
2021/05/15 06:10:38;;;;;;;19.52;15.48;;;12.30;98.00;;;;;;5095962;28;20024;-40
2021/05/15 06:13:09;;;;;;;22.42;16.13;;;12.40;98.00;;;;;;5086348;28;20024;-40
2021/05/15 06:15:35;;;;;;;19.95;15.15;;;12.40;98.00;;;;;;5094160;28;20024;-39
2021/05/15 06:18:00;;;;;;;19.90;14.25;;;12.40;98.00;;;;;;5088172;28;20560;-37
2021/05/15 06:20:26;;;;;;;19.85;14.38;;;12.50;98.00;;;;;;5090885;28;20169;-38
2021/05/15 06:22:52;;;;;;;19.08;15.35;;;12.60;98.00;;;;;;5091811;28;20446;-39
2021/05/15 06:25:18;;;;;;;24.10;17.08;;;12.60;98.00;;;;;;5088495;28;20103;-39
2021/05/15 06:27:43;;;;;;;21.27;16.67;;;12.70;98.00;;;;;;5094630;28;20059;-39
2021/05/15 06:30:09;;;;;;;24.50;18.25;;;12.70;98.00;;;;;;5086660;28;20391;-38
2021/05/15 06:32:35;;;;;;;24.65;18.77;;;12.70;98.10;;;;;;5104148;28;20081;-40
2021/05/15 06:35:01;;;;;;;28.08;20.27;;;12.60;98.10;;;;;;5107637;28;20023;-40
2021/05/15 06:37:26;;;;;;;26.55;19.77;;;12.60;98.20;;;;;;5109024;28;20012;-41
2021/05/15 06:39:55;;;;;;;27.48;20.08;;;12.60;98.30;;;;;;5108805;28;20119;-37
2021/05/15 06:42:20;;;;;;;33.97;24.05;;;12.60;98.30;;;;;;5098850;28;20027;-40
2021/05/15 06:44:48;;;;;;;35.53;25.05;;;12.60;98.50;;;;;;5104976;28;20031;-41
2021/05/15 06:47:14;;;;;;;35.58;24.45;;;12.60;98.60;;;;;;5093979;28;20020;-40
2021/05/15 06:49:40;;;;;;;37.47;25.60;;;12.50;98.60;;;;;;5088220;28;20528;-38
2021/05/15 06:52:05;;;;;;;41.17;29.50;;;12.50;98.60;;;;;;5094511;28;20428;-39
2021/05/15 06:54:31;;;;;;;42.10;29.00;;;12.40;98.80;;;;;;5106827;28;20045;-41
2021/05/15 06:56:57;;;;;;;41.67;27.55;;;12.40;99.00;;;;;;5100632;28;20439;-40
2021/05/15 06:59:22;;;;;;;40.95;28.20;;;12.40;98.90;;;;;;5104787;28;20143;-37
2021/05/15 07:01:48;;;;;;;37.85;26.25;;;12.40;98.90;;;;;;5102186;28;20439;-40
2021/05/15 07:04:14;;;;;;;34.78;24.73;;;12.50;99.10;;;;;;5102456;28;20084;-40
2021/05/15 07:06:39;;;;;;;38.17;25.83;;;12.50;98.70;;;;;;5108101;28;20589;-38
2021/05/15 07:09:06;;;;;;;35.38;24.83;;;12.60;98.70;;;;;;5107825;28;20020;-39
2021/05/15 07:11:32;;;;;;;38.58;26.98;;;12.70;98.60;;;;;;5108376;28;20073;-38
2021/05/15 07:13:57;;;;;;;33.05;24.35;;;12.80;98.50;;;;;;5107542;28;20019;-38
2021/05/15 07:16:23;;;;;;;40.45;27.80;;;12.80;98.50;;;;;;5106429;28;20041;-40
2021/05/15 07:18:48;;;;;;;34.63;24.70;;;12.80;98.40;;;;;;5096830;28;20485;-41
2021/05/15 07:21:14;;;;;;;35.72;25.92;;;12.80;98.40;;;;;;5108039;28;20027;-39
2021/05/15 07:23:40;;;;;;;34.53;24.27;;;12.90;98.40;;;;;;5094562;28;20037;-40
2021/05/15 07:26:07;;;;;;;36.78;25.85;;;13.00;98.40;;;;;;5108556;28;20027;-40
2021/05/15 07:28:34;;;;;;;34.88;25.23;;;13.00;98.30;;;;;;5101949;28;20064;-38
2021/05/15 07:31:00;;;;;;;32.75;24.92;;;13.00;98.30;;;;;;5087945;28;20024;-39
2021/05/15 07:33:25;;;;;;;38.40;25.08;;;13.10;98.30;;;;;;5098679;28;20030;-38
2021/05/15 07:35:51;;;;;;;31.60;23.45;;;13.10;98.20;;;;;;5089245;28;20031;-40
2021/05/15 07:38:17;;;;;;;35.13;24.42;;;13.20;98.10;;;;;;5095812;28;20586;-41
2021/05/15 07:40:42;;;;;;;30.08;21.52;;;13.30;98.00;;;;;;5106688;28;20087;-39
2021/05/15 07:43:08;;;;;;;32.78;22.50;;;13.30;98.00;;;;;;5106471;28;20019;-39
2021/05/15 07:45:33;;;;;;;33.65;22.05;;;13.30;97.90;;;;;;5105463;28;20065;-40
2021/05/15 07:48:00;;;;;;;37.45;25.80;;;13.40;97.90;;;;;;5103627;28;20024;-40
2021/05/15 07:50:27;;;;;;;28.38;21.17;;;13.50;97.50;;;;;;5095588;28;20059;-41
2021/05/15 07:52:53;;;;;;;28.48;20.48;;;13.60;97.50;;;;;;5088118;28;20423;-40
2021/05/15 07:55:18;;;;;;;29.83;22.08;;;13.70;97.40;;;;;;5098783;28;20028;-40
2021/05/15 07:57:44;;;;;;;29.02;20.80;;;13.80;97.40;;;;;;5087991;28;20222;-40
2021/05/15 08:00:10;;;;;;;27.33;20.67;;;13.80;96.80;;;;;;5098483;28;20067;-40
2021/05/15 08:02:36;;;;;;;25.55;19.23;;;13.90;96.70;;;;;;5097783;28;20101;-39
2021/05/15 08:05:02;;;;;;;29.35;21.10;;;14.00;96.70;;;;;;5099197;28;20020;-39
2021/05/15 08:07:29;;;;;;;27.25;20.70;;;14.00;96.50;;;;;;5101958;28;20035;-38
2021/05/15 08:09:55;;;;;;;26.02;19.83;;;14.10;96.50;;;;;;5105561;28;20347;-40
2021/05/15 08:12:20;;;;;;;27.17;20.35;;;14.20;96.40;;;;;;5108064;28;20032;-37
2021/05/15 08:14:46;;;;;;;28.98;21.75;;;14.20;96.40;;;;;;5100761;28;20015;-40
2021/05/15 08:17:11;;;;;;;27.90;21.60;;;14.20;96.20;;;;;;5108039;28;20550;-40
2021/05/15 08:19:37;;;;;;;27.00;20.20;;;14.20;96.00;;;;;;5103080;28;20139;-40
2021/05/15 08:22:03;;;;;;;28.42;21.15;;;14.10;96.20;;;;;;5092465;28;20035;-40
2021/05/15 08:24:28;;;;;;;27.92;21.20;;;14.20;96.10;;;;;;5092406;28;20561;-38
2021/05/15 08:26:55;;;;;;;26.90;20.13;;;14.30;95.80;;;;;;5106154;28;20396;-40
2021/05/15 08:29:22;;;;;;;26.25;20.00;;;14.40;95.80;;;;;;5105335;28;20027;-39
2021/05/15 08:31:48;;;;;;;25.83;20.92;;;14.40;95.70;;;;;;5097693;28;20174;-39
2021/05/15 08:34:14;;;;;;;25.10;19.23;;;14.50;95.50;;;;;;5106590;28;20185;-39
2021/05/15 08:36:40;;;;;;;26.02;19.73;;;14.50;95.40;;;;;;5095965;28;20054;-40
2021/05/15 08:39:06;;;;;;;25.83;20.00;;;14.40;94.90;;;;;;5105901;28;20042;-38
2021/05/15 08:41:33;;;;;;;23.20;17.58;;;14.20;95.20;;;;;;5096113;28;20012;-40
2021/05/15 08:44:02;;;;;;;24.95;20.50;;;14.10;95.40;;;;;;5107741;28;20088;-40
2021/05/15 08:46:29;;;;;;;23.63;18.30;;;14.20;95.50;;;;;;5098996;28;20027;-39
2021/05/15 08:48:58;;;;;;;27.98;20.63;;;14.30;95.50;;;;;;5108060;28;20031;-39
2021/05/15 08:51:25;;;;;;;24.67;20.42;;;14.50;95.30;;;;;;5101284;28;20062;-41
2021/05/15 08:53:51;;;;;;;29.30;22.15;;;14.60;95.00;;;;;;5106635;28;20040;-37
2021/05/15 08:56:17;;;;;;;30.23;23.88;;;14.70;94.70;;;;;;5096064;28;20012;-39
2021/05/15 08:58:46;;;;;;;30.65;22.45;;;14.90;94.20;;;;;;5104566;28;20114;-40
2021/05/15 09:01:14;;;;;;;25.42;21.63;;;15.00;93.90;;;;;;5097161;28;20128;-42
2021/05/15 09:03:40;;;;;;;27.48;20.70;;;15.10;93.40;;;;;;5090219;28;20461;-40
2021/05/15 09:06:06;;;;;;;23.65;19.20;;;15.10;93.30;;;;;;5094225;28;20138;-40
2021/05/15 09:08:32;;;;;;;25.17;19.40;;;15.10;93.10;;;;;;5092082;28;20127;-39
2021/05/15 09:11:00;;;;;;;22.02;16.90;;;15.10;93.00;;;;;;5095154;27;20099;-39
2021/05/15 09:13:28;;;;;;;21.60;15.95;;;15.20;93.20;;;;;;5106978;28;20113;-39
2021/05/15 09:16:01;;;;;;;21.00;16.90;;;15.20;93.20;;;;;;5105251;28;21240;-40
2021/05/15 09:18:32;;;;;;;22.90;17.38;;;15.20;92.80;;;;;;5105554;28;20031;-40
2021/05/15 09:21:21;;;;;;;20.25;15.68;;;15.20;92.50;;;;;;5087046;28;20335;-40
2021/05/15 09:23:46;;;;;;;20.80;15.30;;;15.30;92.90;;;;;;5103225;28;20483;-40
2021/05/15 09:26:20;;;;;;;20.52;15.80;;;15.40;92.70;;;;;;5105763;28;20364;-40
2021/05/15 09:28:49;;;;;;;21.85;17.08;;;15.50;92.60;;;;;;5104128;28;20020;-39
2021/05/15 09:31:24;;;;;;;20.98;16.70;;;15.70;92.10;;;;;;5106179;28;20027;-40
2021/05/15 09:34:01;;;;;;;19.75;15.75;;;15.70;92.10;;;;;;5104034;28;20122;-40
2021/05/15 09:36:29;;;;;;;17.95;14.77;;;15.70;92.10;;;;;;5104862;28;20023;-41
2021/05/15 09:39:08;;;;;;;18.05;14.45;;;15.70;92.20;;;;;;5106767;28;20160;-41
2021/05/15 09:41:41;;;;;;;16.25;13.82;;;15.70;92.30;;;;;;5105353;28;20387;-39
2021/05/15 09:44:12;;;;;;;17.48;13.80;;;15.60;92.20;;;;;;5095805;28;20478;-39
2021/05/15 09:46:40;;;;;;;18.75;15.60;;;15.50;92.30;;;;;;5103584;28;20051;-39
2021/05/15 09:49:06;;;;;;;23.02;18.42;;;15.40;92.10;;;;;;5091757;28;20203;-39
2021/05/15 09:51:32;;;;;;;21.75;18.38;;;15.30;92.10;;;;;;5087179;28;20089;-38
2021/05/15 09:54:17;;;;;;;17.98;15.38;;;15.30;92.30;;;;;;5098103;28;20043;-39
2021/05/15 09:56:43;;;;;;;20.83;16.95;;;15.40;92.40;;;;;;5086415;28;20499;-40
2021/05/15 09:59:11;;;;;;;17.77;14.73;;;15.60;92.30;;;;;;5097328;28;20056;-39
2021/05/15 10:01:42;;;;;;;24.38;19.20;;;15.80;92.20;;;;;;5086199;28;20467;-40
2021/05/15 10:04:07;;;;;;;21.58;17.58;;;15.70;91.70;;;;;;5104156;28;20168;-40
2021/05/15 10:06:34;;;;;;;21.77;17.65;;;15.70;91.40;;;;;;5106477;28;20123;-39
2021/05/15 10:08:59;;;;;;;22.20;18.30;;;15.80;91.60;;;;;;5092755;28;20044;-39
2021/05/15 10:11:25;;;;;;;21.65;16.83;;;15.80;91.50;;;;;;5103983;28;20028;-39
2021/05/15 10:13:51;;;;;;;18.77;14.38;;;15.90;91.20;;;;;;5094083;28;20538;-38
2021/05/15 10:16:18;;;;;;;17.42;14.05;;;15.90;91.40;;;;;;5105068;28;20366;-37
2021/05/15 10:18:44;;;;;;;17.67;14.55;;;16.00;91.00;;;;;;5095979;28;20031;-40
2021/05/15 10:21:09;;;;;;;20.95;16.70;;;16.10;90.60;;;;;;5103048;28;20657;-40
2021/05/15 10:23:38;;;;;;;17.98;15.18;;;16.20;90.50;;;;;;5100497;28;20069;-38
2021/05/15 10:26:07;;;;;;;19.67;15.18;;;16.40;90.40;;;;;;5091041;28;20187;-39
2021/05/15 10:28:35;;;;;;;19.52;14.95;;;16.60;90.40;;;;;;5089437;28;20331;-39
2021/05/15 10:31:04;;;;;;;18.15;14.68;;;16.70;90.20;;;;;;5092190;28;20206;-39
2021/05/15 10:33:31;;;;;;;16.15;13.35;;;16.80;89.70;;;;;;5101426;28;20045;-40
2021/05/15 10:35:57;;;;;;;18.13;13.38;;;16.80;89.50;;;;;;5105409;28;20073;-40
2021/05/15 10:38:31;;;;;;;15.45;12.70;;;16.80;89.60;;;;;;5104122;28;20023;-40
2021/05/15 10:41:08;;;;;;;13.75;12.10;;;16.80;90.00;;;;;;5094733;28;20036;-40
2021/05/15 10:43:35;;;;;;;12.63;10.80;;;16.80;90.10;;;;;;5102794;28;20020;-39
2021/05/15 10:46:21;;;;;;;15.68;12.85;;;16.80;90.20;;;;;;5095977;28;20055;-39
2021/05/15 10:49:09;;;;;;;15.13;12.48;;;16.80;90.10;;;;;;5092345;28;20181;-40
2021/05/15 10:51:36;;;;;;;14.60;11.82;;;16.90;90.00;;;;;;5097309;28;20036;-39
2021/05/15 10:54:03;;;;;;;14.82;11.40;;;16.90;90.10;;;;;;5100893;28;20048;-40
2021/05/15 10:56:32;;;;;;;16.85;13.80;;;16.90;89.90;;;;;;5097022;28;20040;-39
2021/05/15 10:59:16;;;;;;;16.15;13.50;;;16.90;89.80;;;;;;5086572;28;20023;-39
2021/05/15 11:01:47;;;;;;;17.33;12.60;;;16.90;90.00;;;;;;5095079;28;20336;-39
2021/05/15 11:04:31;;;;;;;17.02;12.85;;;16.80;90.10;;;;;;5102759;28;20490;-39
2021/05/15 11:07:06;;;;;;;17.77;13.75;;;16.80;90.10;;;;;;5103222;28;20071;-40
2021/05/15 11:09:35;;;;;;;14.55;11.65;;;16.80;90.10;;;;;;5103248;28;20023;-41
2021/05/15 11:12:14;;;;;;;16.25;12.48;;;16.90;90.10;;;;;;5104620;28;20015;-40
2021/05/15 11:14:42;;;;;;;13.00;11.65;;;16.90;90.00;;;;;;5102454;28;20098;-39
2021/05/15 11:17:11;;;;;;;14.95;12.15;;;17.00;90.00;;;;;;5105619;28;20020;-40
2021/05/15 11:19:38;;;;;;;16.23;12.93;;;17.10;89.20;;;;;;5105535;28;20031;-40
2021/05/15 11:22:04;;;;;;;14.93;12.35;;;17.30;88.50;;;;;;5108023;28;20028;-40
2021/05/15 11:24:31;;;;;;;15.75;12.35;;;17.40;86.90;;;;;;5108134;28;20108;-38
2021/05/15 11:27:07;;;;;;;14.43;12.73;;;17.40;87.20;;;;;;5108207;28;20016;-39
2021/05/15 11:29:36;;;;;;;18.65;13.85;;;17.50;86.80;;;;;;5106018;28;20027;-39
2021/05/15 11:32:07;;;;;;;15.15;12.55;;;17.50;86.60;;;;;;5108385;28;20795;-38
2021/05/15 11:34:32;;;;;;;13.25;11.10;;;17.60;86.80;;;;;;5108673;28;20127;-39
2021/05/15 11:36:58;;;;;;;14.27;12.23;;;17.60;86.80;;;;;;5105608;28;20027;-39
2021/05/15 11:39:26;;;;;;;14.80;11.77;;;17.80;86.50;;;;;;5110192;28;20376;-38
2021/05/15 11:42:11;;;;;;;13.07;10.43;;;17.80;86.30;;;;;;5095903;28;20357;-39
2021/05/15 11:44:40;;;;;;;13.88;11.20;;;17.90;86.20;;;;;;5088937;28;20028;-39
2021/05/15 11:47:08;;;;;;;12.93;11.32;;;18.00;85.80;;;;;;5093075;28;20020;-40
2021/05/15 11:49:35;;;;;;;13.23;10.07;;;18.10;85.90;;;;;;5105536;28;20143;-38
2021/05/15 11:52:03;;;;;;;12.23;10.27;;;18.20;85.70;;;;;;5104114;28;20020;-46
2021/05/15 11:54:29;;;;;;;15.77;11.27;;;18.20;85.70;;;;;;5097269;28;20035;-38
2021/05/15 11:56:56;;;;;;;12.23;10.57;;;18.10;85.30;;;;;;5100152;28;20063;-40
2021/05/15 11:59:23;;;;;;;11.80;10.20;;;17.90;85.80;;;;;;5104914;28;20020;-38
2021/05/15 12:01:48;;;;;;;11.25;9.65;;;17.70;86.30;;;;;;5102184;28;20080;-38
2021/05/15 12:04:25;;;;;;;11.07;6.78;;;17.40;86.00;;;;;;5106031;28;20139;-40
2021/05/15 12:07:03;;;;;;;7.88;4.60;;;16.90;89.00;;;;;;5103598;28;20043;-40
2021/05/15 12:09:31;;;;;;;6.55;4.40;;;15.90;90.20;;;;;;5104197;28;20123;-39
2021/05/15 12:12:05;;;;;;;5.10;3.63;;;14.90;91.30;;;;;;5103579;28;20095;-40
2021/05/15 12:14:32;;;;;;;3.75;2.90;;;14.00;92.40;;;;;;5094076;28;20047;-39
2021/05/15 12:17:09;;;;;;;3.65;2.60;;;13.30;93.40;;;;;;5088737;28;20026;-40
2021/05/15 12:19:35;;;;;;;4.40;2.42;;;12.90;94.10;;;;;;5095211;28;20047;-38
2021/05/15 12:22:06;;;;;;;2.65;2.17;;;12.60;94.40;;;;;;5088386;28;20103;-40
2021/05/15 12:24:36;;;;;;;4.07;2.38;;;12.50;94.70;;;;;;5096918;28;20036;-37
2021/05/15 12:27:18;;;;;;;2.80;2.30;;;12.50;94.80;;;;;;5088674;28;20079;-40
2021/05/15 12:29:48;;;;;;;2.58;2.38;;;12.60;95.00;;;;;;5098016;28;20102;-39